sensor_id;sensor_type;location;lat;lon;timestamp;P1;durP1;ratioP1;P2;durP2;ratioP2
68225;SDS011;55045;49.410;11.030;2022-12-07T00:01:05;14.48;;;9.18;;
68225;SDS011;55045;49.410;11.030;2022-12-07T00:04:10;13.68;;;8.57;;
68225;SDS011;55045;49.410;11.030;2022-12-07T00:07:16;13.85;;;8.52;;
68225;SDS011;55045;49.410;11.030;2022-12-07T00:10:27;12.15;;;8.63;;
68225;SDS011;55045;49.410;11.030;2022-12-07T00:13:30;14.68;;;9.80;;
68225;SDS011;55045;49.410;11.030;2022-12-07T00:16:34;14.18;;;10.02;;
68225;SDS011;55045;49.410;11.030;2022-12-07T00:19:39;15.60;;;10.05;;
68225;SDS011;55045;49.410;11.030;2022-12-07T00:22:44;16.08;;;10.23;;
68225;SDS011;55045;49.410;11.030;2022-12-07T00:25:47;14.10;;;9.13;;
68225;SDS011;55045;49.410;11.030;2022-12-07T00:28:51;16.38;;;10.13;;
68225;SDS011;55045;49.410;11.030;2022-12-07T00:31:56;15.80;;;10.60;;
68225;SDS011;55045;49.410;11.030;2022-12-07T00:34:59;16.58;;;10.77;;
68225;SDS011;55045;49.410;11.030;2022-12-07T00:38:04;15.50;;;11.05;;
68225;SDS011;55045;49.410;11.030;2022-12-07T00:41:09;17.63;;;11.23;;
68225;SDS011;55045;49.410;11.030;2022-12-07T00:44:14;20.10;;;10.63;;
68225;SDS011;55045;49.410;11.030;2022-12-07T00:47:17;15.45;;;10.95;;
68225;SDS011;55045;49.410;11.030;2022-12-07T00:50:22;19.48;;;11.73;;
68225;SDS011;55045;49.410;11.030;2022-12-07T00:53:28;18.55;;;10.70;;
68225;SDS011;55045;49.410;11.030;2022-12-07T00:59:37;15.43;;;10.10;;
68225;SDS011;55045;49.410;11.030;2022-12-07T01:02:40;17.25;;;10.18;;
68225;SDS011;55045;49.410;11.030;2022-12-07T01:05:50;19.00;;;11.57;;
68225;SDS011;55045;49.410;11.030;2022-12-07T01:08:56;16.63;;;10.70;;
68225;SDS011;55045;49.410;11.030;2022-12-07T01:12:00;19.10;;;10.93;;
68225;SDS011;55045;49.410;11.030;2022-12-07T01:15:05;16.95;;;11.63;;
68225;SDS011;55045;49.410;11.030;2022-12-07T01:18:09;15.55;;;10.63;;
68225;SDS011;55045;49.410;11.030;2022-12-07T01:21:13;15.88;;;9.63;;
68225;SDS011;55045;49.410;11.030;2022-12-07T01:24:19;20.00;;;12.40;;
68225;SDS011;55045;49.410;11.030;2022-12-07T01:27:23;23.05;;;12.02;;
68225;SDS011;55045;49.410;11.030;2022-12-07T01:30:26;19.40;;;10.90;;
68225;SDS011;55045;49.410;11.030;2022-12-07T01:33:31;20.27;;;12.73;;
68225;SDS011;55045;49.410;11.030;2022-12-07T01:36:36;18.13;;;11.50;;
68225;SDS011;55045;49.410;11.030;2022-12-07T01:39:41;19.48;;;12.15;;
68225;SDS011;55045;49.410;11.030;2022-12-07T01:42:45;19.45;;;12.10;;
68225;SDS011;55045;49.410;11.030;2022-12-07T01:45:48;18.80;;;12.48;;
68225;SDS011;55045;49.410;11.030;2022-12-07T01:48:52;20.58;;;12.52;;
68225;SDS011;55045;49.410;11.030;2022-12-07T01:51:57;20.98;;;12.25;;
68225;SDS011;55045;49.410;11.030;2022-12-07T01:55:07;18.90;;;11.88;;
68225;SDS011;55045;49.410;11.030;2022-12-07T01:58:14;19.25;;;12.05;;
68225;SDS011;55045;49.410;11.030;2022-12-07T02:01:18;19.13;;;12.23;;
68225;SDS011;55045;49.410;11.030;2022-12-07T02:04:21;20.95;;;12.48;;
68225;SDS011;55045;49.410;11.030;2022-12-07T02:07:25;19.95;;;13.35;;
68225;SDS011;55045;49.410;11.030;2022-12-07T02:10:32;18.77;;;11.88;;
68225;SDS011;55045;49.410;11.030;2022-12-07T02:13:36;21.00;;;13.10;;
68225;SDS011;55045;49.410;11.030;2022-12-07T02:16:45;21.48;;;11.90;;
68225;SDS011;55045;49.410;11.030;2022-12-07T02:20:03;22.23;;;12.57;;
68225;SDS011;55045;49.410;11.030;2022-12-07T02:23:29;24.55;;;13.60;;
68225;SDS011;55045;49.410;11.030;2022-12-07T02:27:07;23.00;;;13.55;;
68225;SDS011;55045;49.410;11.030;2022-12-07T02:30:25;22.00;;;12.77;;
68225;SDS011;55045;49.410;11.030;2022-12-07T02:33:36;20.58;;;12.30;;
68225;SDS011;55045;49.410;11.030;2022-12-07T02:36:44;24.20;;;13.00;;
68225;SDS011;55045;49.410;11.030;2022-12-07T02:39:54;23.63;;;12.95;;
68225;SDS011;55045;49.410;11.030;2022-12-07T02:43:06;23.45;;;12.80;;
68225;SDS011;55045;49.410;11.030;2022-12-07T02:46:15;20.23;;;12.43;;
68225;SDS011;55045;49.410;11.030;2022-12-07T02:49:23;24.25;;;13.13;;
68225;SDS011;55045;49.410;11.030;2022-12-07T02:52:29;22.95;;;12.95;;
68225;SDS011;55045;49.410;11.030;2022-12-07T02:55:33;23.08;;;12.77;;
68225;SDS011;55045;49.410;11.030;2022-12-07T02:58:44;22.30;;;13.07;;
68225;SDS011;55045;49.410;11.030;2022-12-07T03:02:04;22.23;;;13.35;;
68225;SDS011;55045;49.410;11.030;2022-12-07T03:05:27;23.95;;;12.80;;
68225;SDS011;55045;49.410;11.030;2022-12-07T03:08:44;21.27;;;10.98;;
68225;SDS011;55045;49.410;11.030;2022-12-07T03:11:55;22.90;;;11.65;;
68225;SDS011;55045;49.410;11.030;2022-12-07T03:15:04;22.80;;;12.57;;
68225;SDS011;55045;49.410;11.030;2022-12-07T03:18:14;24.75;;;14.10;;
68225;SDS011;55045;49.410;11.030;2022-12-07T03:21:22;24.83;;;12.88;;
68225;SDS011;55045;49.410;11.030;2022-12-07T03:24:30;22.90;;;12.03;;
68225;SDS011;55045;49.410;11.030;2022-12-07T03:27:41;27.88;;;14.68;;
68225;SDS011;55045;49.410;11.030;2022-12-07T03:30:49;26.67;;;13.98;;
68225;SDS011;55045;49.410;11.030;2022-12-07T03:34:01;28.27;;;14.75;;
68225;SDS011;55045;49.410;11.030;2022-12-07T03:37:10;23.20;;;12.68;;
68225;SDS011;55045;49.410;11.030;2022-12-07T03:40:19;25.63;;;14.93;;
68225;SDS011;55045;49.410;11.030;2022-12-07T03:43:29;22.30;;;12.27;;
68225;SDS011;55045;49.410;11.030;2022-12-07T03:46:35;22.40;;;12.13;;
68225;SDS011;55045;49.410;11.030;2022-12-07T03:49:54;26.05;;;14.23;;
68225;SDS011;55045;49.410;11.030;2022-12-07T03:53:02;24.85;;;14.30;;
68225;SDS011;55045;49.410;11.030;2022-12-07T03:56:12;33.30;;;15.15;;
68225;SDS011;55045;49.410;11.030;2022-12-07T03:59:17;27.15;;;16.52;;
68225;SDS011;55045;49.410;11.030;2022-12-07T04:02:21;28.33;;;16.05;;
68225;SDS011;55045;49.410;11.030;2022-12-07T04:05:27;31.90;;;18.95;;
68225;SDS011;55045;49.410;11.030;2022-12-07T04:08:32;33.90;;;18.83;;
68225;SDS011;55045;49.410;11.030;2022-12-07T04:11:37;37.83;;;21.13;;
68225;SDS011;55045;49.410;11.030;2022-12-07T04:14:41;38.08;;;21.38;;
68225;SDS011;55045;49.410;11.030;2022-12-07T04:17:44;39.08;;;21.05;;
68225;SDS011;55045;49.410;11.030;2022-12-07T04:20:49;37.75;;;20.05;;
68225;SDS011;55045;49.410;11.030;2022-12-07T04:23:52;42.38;;;23.35;;
68225;SDS011;55045;49.410;11.030;2022-12-07T04:26:56;44.33;;;23.42;;
68225;SDS011;55045;49.410;11.030;2022-12-07T04:30:00;49.63;;;24.10;;
68225;SDS011;55045;49.410;11.030;2022-12-07T04:34:49;38.00;;;20.48;;
68225;SDS011;55045;49.410;11.030;2022-12-07T04:37:56;38.42;;;22.42;;
68225;SDS011;55045;49.410;11.030;2022-12-07T04:41:03;38.97;;;22.25;;
68225;SDS011;55045;49.410;11.030;2022-12-07T04:44:08;38.50;;;22.15;;
68225;SDS011;55045;49.410;11.030;2022-12-07T04:47:11;34.03;;;17.75;;
68225;SDS011;55045;49.410;11.030;2022-12-07T04:50:16;39.67;;;21.58;;
68225;SDS011;55045;49.410;11.030;2022-12-07T04:53:19;38.00;;;21.58;;
68225;SDS011;55045;49.410;11.030;2022-12-07T04:56:23;34.67;;;19.65;;
68225;SDS011;55045;49.410;11.030;2022-12-07T04:59:27;31.85;;;17.08;;
68225;SDS011;55045;49.410;11.030;2022-12-07T05:02:30;34.40;;;16.98;;
68225;SDS011;55045;49.410;11.030;2022-12-07T05:05:35;34.55;;;18.30;;
68225;SDS011;55045;49.410;11.030;2022-12-07T05:08:39;38.90;;;19.85;;
68225;SDS011;55045;49.410;11.030;2022-12-07T05:11:43;36.35;;;18.55;;
68225;SDS011;55045;49.410;11.030;2022-12-07T05:14:46;35.38;;;17.15;;
68225;SDS011;55045;49.410;11.030;2022-12-07T05:17:49;37.22;;;18.67;;
68225;SDS011;55045;49.410;11.030;2022-12-07T05:20:55;36.90;;;18.15;;
68225;SDS011;55045;49.410;11.030;2022-12-07T05:24:03;30.55;;;16.27;;
68225;SDS011;55045;49.410;11.030;2022-12-07T05:27:07;32.08;;;16.58;;
68225;SDS011;55045;49.410;11.030;2022-12-07T05:30:11;31.42;;;16.48;;
68225;SDS011;55045;49.410;11.030;2022-12-07T05:33:15;31.27;;;16.40;;
68225;SDS011;55045;49.410;11.030;2022-12-07T05:36:19;35.70;;;17.90;;
68225;SDS011;55045;49.410;11.030;2022-12-07T05:39:26;32.47;;;16.08;;
68225;SDS011;55045;49.410;11.030;2022-12-07T05:42:29;32.10;;;16.60;;
68225;SDS011;55045;49.410;11.030;2022-12-07T05:45:32;31.60;;;16.02;;
68225;SDS011;55045;49.410;11.030;2022-12-07T05:48:36;35.30;;;17.50;;
68225;SDS011;55045;49.410;11.030;2022-12-07T05:51:42;36.70;;;17.00;;
68225;SDS011;55045;49.410;11.030;2022-12-07T05:54:46;35.30;;;17.27;;
68225;SDS011;55045;49.410;11.030;2022-12-07T05:57:49;32.88;;;16.33;;
68225;SDS011;55045;49.410;11.030;2022-12-07T06:01:06;36.22;;;18.73;;
68225;SDS011;55045;49.410;11.030;2022-12-07T06:04:09;30.77;;;15.25;;
68225;SDS011;55045;49.410;11.030;2022-12-07T06:07:14;37.38;;;19.15;;
68225;SDS011;55045;49.410;11.030;2022-12-07T06:10:19;34.42;;;17.00;;
68225;SDS011;55045;49.410;11.030;2022-12-07T06:13:23;35.67;;;18.30;;
68225;SDS011;55045;49.410;11.030;2022-12-07T06:16:25;36.42;;;18.85;;
68225;SDS011;55045;49.410;11.030;2022-12-07T06:19:28;36.10;;;19.77;;
68225;SDS011;55045;49.410;11.030;2022-12-07T06:22:33;33.78;;;18.08;;
68225;SDS011;55045;49.410;11.030;2022-12-07T06:25:36;34.97;;;17.73;;
68225;SDS011;55045;49.410;11.030;2022-12-07T06:28:40;33.08;;;16.73;;
68225;SDS011;55045;49.410;11.030;2022-12-07T06:31:44;35.17;;;19.15;;
68225;SDS011;55045;49.410;11.030;2022-12-07T06:34:47;35.42;;;18.55;;
68225;SDS011;55045;49.410;11.030;2022-12-07T06:37:52;36.40;;;18.17;;
68225;SDS011;55045;49.410;11.030;2022-12-07T06:40:58;40.60;;;19.17;;
68225;SDS011;55045;49.410;11.030;2022-12-07T06:44:02;34.28;;;16.88;;
68225;SDS011;55045;49.410;11.030;2022-12-07T06:47:07;28.52;;;14.80;;
68225;SDS011;55045;49.410;11.030;2022-12-07T06:50:31;30.20;;;15.00;;
68225;SDS011;55045;49.410;11.030;2022-12-07T06:53:35;30.58;;;15.00;;
68225;SDS011;55045;49.410;11.030;2022-12-07T06:56:46;29.73;;;14.80;;
68225;SDS011;55045;49.410;11.030;2022-12-07T06:59:49;29.65;;;14.23;;
68225;SDS011;55045;49.410;11.030;2022-12-07T07:02:53;31.40;;;16.63;;
68225;SDS011;55045;49.410;11.030;2022-12-07T07:05:58;33.55;;;17.00;;
68225;SDS011;55045;49.410;11.030;2022-12-07T07:09:08;32.10;;;15.57;;
68225;SDS011;55045;49.410;11.030;2022-12-07T07:12:16;34.58;;;17.30;;
68225;SDS011;55045;49.410;11.030;2022-12-07T07:18:29;28.58;;;14.55;;
68225;SDS011;55045;49.410;11.030;2022-12-07T07:21:35;32.55;;;15.55;;
68225;SDS011;55045;49.410;11.030;2022-12-07T07:24:40;28.77;;;14.40;;
68225;SDS011;55045;49.410;11.030;2022-12-07T07:27:44;25.98;;;12.70;;
68225;SDS011;55045;49.410;11.030;2022-12-07T07:30:47;27.02;;;14.25;;
68225;SDS011;55045;49.410;11.030;2022-12-07T07:33:51;36.90;;;16.13;;
68225;SDS011;55045;49.410;11.030;2022-12-07T07:36:55;31.92;;;16.63;;
68225;SDS011;55045;49.410;11.030;2022-12-07T07:39:59;32.20;;;15.95;;
68225;SDS011;55045;49.410;11.030;2022-12-07T07:46:09;35.15;;;17.05;;
68225;SDS011;55045;49.410;11.030;2022-12-07T07:49:13;38.40;;;18.27;;
68225;SDS011;55045;49.410;11.030;2022-12-07T07:52:16;40.45;;;19.25;;
68225;SDS011;55045;49.410;11.030;2022-12-07T07:55:21;31.05;;;15.55;;
68225;SDS011;55045;49.410;11.030;2022-12-07T07:58:24;31.77;;;17.52;;
68225;SDS011;55045;49.410;11.030;2022-12-07T08:01:27;32.67;;;15.95;;
68225;SDS011;55045;49.410;11.030;2022-12-07T08:04:32;30.45;;;14.82;;
68225;SDS011;55045;49.410;11.030;2022-12-07T08:07:35;34.20;;;16.63;;
68225;SDS011;55045;49.410;11.030;2022-12-07T08:10:42;25.10;;;14.35;;
68225;SDS011;55045;49.410;11.030;2022-12-07T08:13:46;29.80;;;14.48;;
68225;SDS011;55045;49.410;11.030;2022-12-07T08:16:51;32.28;;;16.30;;
68225;SDS011;55045;49.410;11.030;2022-12-07T08:19:55;32.65;;;16.45;;
68225;SDS011;55045;49.410;11.030;2022-12-07T08:22:59;28.13;;;15.10;;
68225;SDS011;55045;49.410;11.030;2022-12-07T08:26:06;29.38;;;14.60;;
68225;SDS011;55045;49.410;11.030;2022-12-07T08:29:15;29.63;;;14.18;;
68225;SDS011;55045;49.410;11.030;2022-12-07T08:32:21;28.58;;;13.93;;
68225;SDS011;55045;49.410;11.030;2022-12-07T08:35:28;27.45;;;14.68;;
68225;SDS011;55045;49.410;11.030;2022-12-07T08:38:31;27.05;;;13.23;;
68225;SDS011;55045;49.410;11.030;2022-12-07T08:41:37;29.38;;;14.40;;
68225;SDS011;55045;49.410;11.030;2022-12-07T08:44:45;28.45;;;14.48;;
68225;SDS011;55045;49.410;11.030;2022-12-07T08:47:50;25.58;;;13.40;;
68225;SDS011;55045;49.410;11.030;2022-12-07T08:50:57;25.02;;;13.73;;
68225;SDS011;55045;49.410;11.030;2022-12-07T08:54:02;27.13;;;13.88;;
68225;SDS011;55045;49.410;11.030;2022-12-07T08:57:12;23.17;;;12.07;;
68225;SDS011;55045;49.410;11.030;2022-12-07T09:00:16;22.17;;;11.95;;
68225;SDS011;55045;49.410;11.030;2022-12-07T09:03:19;23.75;;;12.75;;
68225;SDS011;55045;49.410;11.030;2022-12-07T09:06:22;27.33;;;11.77;;
68225;SDS011;55045;49.410;11.030;2022-12-07T09:09:26;20.23;;;10.73;;
68225;SDS011;55045;49.410;11.030;2022-12-07T09:12:31;21.15;;;11.00;;
68225;SDS011;55045;49.410;11.030;2022-12-07T09:15:34;22.92;;;12.05;;
68225;SDS011;55045;49.410;11.030;2022-12-07T09:18:40;24.48;;;12.30;;
68225;SDS011;55045;49.410;11.030;2022-12-07T09:21:47;22.33;;;12.40;;
68225;SDS011;55045;49.410;11.030;2022-12-07T09:24:55;24.47;;;12.90;;
68225;SDS011;55045;49.410;11.030;2022-12-07T09:27:59;24.80;;;13.88;;
68225;SDS011;55045;49.410;11.030;2022-12-07T09:31:03;26.33;;;12.48;;
68225;SDS011;55045;49.410;11.030;2022-12-07T09:34:26;23.27;;;11.68;;
68225;SDS011;55045;49.410;11.030;2022-12-07T09:37:37;21.15;;;11.57;;
68225;SDS011;55045;49.410;11.030;2022-12-07T09:40:47;22.13;;;11.90;;
68225;SDS011;55045;49.410;11.030;2022-12-07T09:43:52;22.83;;;11.18;;
68225;SDS011;55045;49.410;11.030;2022-12-07T09:47:01;26.60;;;12.85;;
68225;SDS011;55045;49.410;11.030;2022-12-07T09:50:05;20.92;;;11.55;;
68225;SDS011;55045;49.410;11.030;2022-12-07T09:53:16;24.15;;;11.57;;
68225;SDS011;55045;49.410;11.030;2022-12-07T09:56:24;24.65;;;13.43;;
68225;SDS011;55045;49.410;11.030;2022-12-07T09:59:29;20.70;;;11.25;;
68225;SDS011;55045;49.410;11.030;2022-12-07T10:02:38;28.08;;;14.88;;
68225;SDS011;55045;49.410;11.030;2022-12-07T10:05:44;25.55;;;12.98;;
68225;SDS011;55045;49.410;11.030;2022-12-07T10:08:50;22.20;;;11.88;;
68225;SDS011;55045;49.410;11.030;2022-12-07T10:12:02;21.42;;;10.75;;
68225;SDS011;55045;49.410;11.030;2022-12-07T10:15:10;21.17;;;11.95;;
68225;SDS011;55045;49.410;11.030;2022-12-07T10:18:20;23.67;;;12.00;;
68225;SDS011;55045;49.410;11.030;2022-12-07T10:21:31;16.80;;;9.75;;
68225;SDS011;55045;49.410;11.030;2022-12-07T10:24:38;21.73;;;11.30;;
68225;SDS011;55045;49.410;11.030;2022-12-07T10:27:44;16.20;;;8.25;;
68225;SDS011;55045;49.410;11.030;2022-12-07T10:34:49;22.20;;;8.80;;
68225;SDS011;55045;49.410;11.030;2022-12-07T10:37:56;18.83;;;9.63;;
68225;SDS011;55045;49.410;11.030;2022-12-07T10:41:04;17.20;;;9.88;;
68225;SDS011;55045;49.410;11.030;2022-12-07T10:44:11;21.75;;;12.27;;
68225;SDS011;55045;49.410;11.030;2022-12-07T10:47:31;19.63;;;11.02;;
68225;SDS011;55045;49.410;11.030;2022-12-07T10:50:50;16.55;;;9.85;;
68225;SDS011;55045;49.410;11.030;2022-12-07T10:54:09;19.85;;;11.20;;
68225;SDS011;55045;49.410;11.030;2022-12-07T10:57:27;22.08;;;11.65;;
68225;SDS011;55045;49.410;11.030;2022-12-07T11:00:43;15.90;;;9.45;;
68225;SDS011;55045;49.410;11.030;2022-12-07T11:04:10;14.50;;;8.30;;
68225;SDS011;55045;49.410;11.030;2022-12-07T11:07:28;18.95;;;10.02;;
68225;SDS011;55045;49.410;11.030;2022-12-07T11:10:44;15.80;;;9.05;;
68225;SDS011;55045;49.410;11.030;2022-12-07T11:13:55;19.30;;;9.38;;
68225;SDS011;55045;49.410;11.030;2022-12-07T11:17:05;20.02;;;10.68;;
68225;SDS011;55045;49.410;11.030;2022-12-07T11:20:20;18.58;;;10.32;;
68225;SDS011;55045;49.410;11.030;2022-12-07T11:23:42;27.42;;;10.82;;
68225;SDS011;55045;49.410;11.030;2022-12-07T11:26:56;18.63;;;10.88;;
68225;SDS011;55045;49.410;11.030;2022-12-07T11:30:17;22.05;;;11.45;;
68225;SDS011;55045;49.410;11.030;2022-12-07T11:33:27;22.95;;;12.32;;
68225;SDS011;55045;49.410;11.030;2022-12-07T11:36:38;20.70;;;10.77;;
68225;SDS011;55045;49.410;11.030;2022-12-07T11:39:47;20.25;;;10.95;;
68225;SDS011;55045;49.410;11.030;2022-12-07T11:42:57;19.40;;;10.57;;
68225;SDS011;55045;49.410;11.030;2022-12-07T11:46:06;18.40;;;9.75;;
68225;SDS011;55045;49.410;11.030;2022-12-07T11:49:14;19.33;;;10.77;;
68225;SDS011;55045;49.410;11.030;2022-12-07T11:52:27;18.50;;;10.52;;
68225;SDS011;55045;49.410;11.030;2022-12-07T11:55:51;18.83;;;11.27;;
68225;SDS011;55045;49.410;11.030;2022-12-07T11:58:58;20.60;;;11.77;;
68225;SDS011;55045;49.410;11.030;2022-12-07T12:02:11;18.42;;;10.23;;
68225;SDS011;55045;49.410;11.030;2022-12-07T12:05:34;18.55;;;10.70;;
68225;SDS011;55045;49.410;11.030;2022-12-07T12:08:52;24.08;;;10.00;;
68225;SDS011;55045;49.410;11.030;2022-12-07T12:12:29;18.67;;;11.00;;
68225;SDS011;55045;49.410;11.030;2022-12-07T12:16:30;18.42;;;10.98;;
68225;SDS011;55045;49.410;11.030;2022-12-07T12:19:58;16.95;;;9.98;;
68225;SDS011;55045;49.410;11.030;2022-12-07T12:23:09;18.38;;;10.80;;
68225;SDS011;55045;49.410;11.030;2022-12-07T12:26:19;18.33;;;10.60;;
68225;SDS011;55045;49.410;11.030;2022-12-07T12:29:37;16.90;;;9.95;;
68225;SDS011;55045;49.410;11.030;2022-12-07T12:32:45;15.85;;;9.50;;
68225;SDS011;55045;49.410;11.030;2022-12-07T12:39:22;19.83;;;11.20;;
68225;SDS011;55045;49.410;11.030;2022-12-07T12:42:42;18.02;;;11.00;;
68225;SDS011;55045;49.410;11.030;2022-12-07T12:45:51;15.68;;;9.90;;
68225;SDS011;55045;49.410;11.030;2022-12-07T12:49:39;20.05;;;11.05;;
68225;SDS011;55045;49.410;11.030;2022-12-07T12:53:02;19.88;;;11.80;;
68225;SDS011;55045;49.410;11.030;2022-12-07T12:56:23;16.20;;;10.18;;
68225;SDS011;55045;49.410;11.030;2022-12-07T12:59:39;19.73;;;11.48;;
68225;SDS011;55045;49.410;11.030;2022-12-07T13:02:50;16.55;;;10.30;;
68225;SDS011;55045;49.410;11.030;2022-12-07T13:09:26;17.73;;;10.43;;
68225;SDS011;55045;49.410;11.030;2022-12-07T13:12:40;17.73;;;9.88;;
68225;SDS011;55045;49.410;11.030;2022-12-07T13:15:44;20.02;;;11.30;;
68225;SDS011;55045;49.410;11.030;2022-12-07T13:18:57;18.90;;;11.43;;
68225;SDS011;55045;49.410;11.030;2022-12-07T13:25:48;23.52;;;12.85;;
68225;SDS011;55045;49.410;11.030;2022-12-07T13:29:09;21.75;;;11.25;;
68225;SDS011;55045;49.410;11.030;2022-12-07T13:32:22;23.08;;;12.43;;
68225;SDS011;55045;49.410;11.030;2022-12-07T13:35:36;22.75;;;13.07;;
68225;SDS011;55045;49.410;11.030;2022-12-07T13:38:48;23.85;;;11.70;;
68225;SDS011;55045;49.410;11.030;2022-12-07T13:42:15;22.98;;;12.82;;
68225;SDS011;55045;49.410;11.030;2022-12-07T13:45:32;19.73;;;11.60;;
68225;SDS011;55045;49.410;11.030;2022-12-07T13:48:56;22.73;;;12.77;;
68225;SDS011;55045;49.410;11.030;2022-12-07T13:52:15;24.17;;;14.18;;
68225;SDS011;55045;49.410;11.030;2022-12-07T13:55:20;25.27;;;13.02;;
68225;SDS011;55045;49.410;11.030;2022-12-07T13:58:25;22.15;;;12.68;;
68225;SDS011;55045;49.410;11.030;2022-12-07T14:04:37;24.42;;;13.68;;
68225;SDS011;55045;49.410;11.030;2022-12-07T14:07:52;23.83;;;13.27;;
68225;SDS011;55045;49.410;11.030;2022-12-07T14:10:57;23.67;;;13.73;;
68225;SDS011;55045;49.410;11.030;2022-12-07T14:14:02;30.67;;;18.98;;
68225;SDS011;55045;49.410;11.030;2022-12-07T14:17:15;34.13;;;14.27;;
68225;SDS011;55045;49.410;11.030;2022-12-07T14:20:30;19.77;;;12.07;;
68225;SDS011;55045;49.410;11.030;2022-12-07T14:23:41;29.25;;;16.20;;
68225;SDS011;55045;49.410;11.030;2022-12-07T14:26:50;24.45;;;13.80;;
68225;SDS011;55045;49.410;11.030;2022-12-07T14:29:59;23.08;;;12.35;;
68225;SDS011;55045;49.410;11.030;2022-12-07T14:33:04;31.17;;;17.88;;
68225;SDS011;55045;49.410;11.030;2022-12-07T14:36:13;24.40;;;12.60;;
68225;SDS011;55045;49.410;11.030;2022-12-07T14:39:22;22.63;;;13.18;;
68225;SDS011;55045;49.410;11.030;2022-12-07T14:42:28;20.83;;;12.68;;
68225;SDS011;55045;49.410;11.030;2022-12-07T14:45:40;24.73;;;13.98;;
68225;SDS011;55045;49.410;11.030;2022-12-07T14:48:52;25.65;;;13.57;;
68225;SDS011;55045;49.410;11.030;2022-12-07T14:52:23;26.10;;;13.32;;
68225;SDS011;55045;49.410;11.030;2022-12-07T14:56:06;20.92;;;12.20;;
68225;SDS011;55045;49.410;11.030;2022-12-07T14:59:11;19.48;;;11.73;;
68225;SDS011;55045;49.410;11.030;2022-12-07T15:02:15;22.17;;;13.25;;
68225;SDS011;55045;49.410;11.030;2022-12-07T15:05:19;20.02;;;11.18;;
68225;SDS011;55045;49.410;11.030;2022-12-07T15:08:24;27.73;;;14.82;;
68225;SDS011;55045;49.410;11.030;2022-12-07T15:11:31;22.25;;;13.00;;
68225;SDS011;55045;49.410;11.030;2022-12-07T15:14:38;31.70;;;14.07;;
68225;SDS011;55045;49.410;11.030;2022-12-07T15:17:43;23.50;;;13.35;;
68225;SDS011;55045;49.410;11.030;2022-12-07T15:20:50;23.45;;;14.00;;
68225;SDS011;55045;49.410;11.030;2022-12-07T15:23:54;26.65;;;14.23;;
68225;SDS011;55045;49.410;11.030;2022-12-07T15:27:03;22.67;;;13.85;;
68225;SDS011;55045;49.410;11.030;2022-12-07T15:30:10;23.85;;;12.93;;
68225;SDS011;55045;49.410;11.030;2022-12-07T15:33:14;25.05;;;13.15;;
68225;SDS011;55045;49.410;11.030;2022-12-07T15:36:19;25.38;;;13.52;;
68225;SDS011;55045;49.410;11.030;2022-12-07T15:39:28;20.52;;;11.25;;
68225;SDS011;55045;49.410;11.030;2022-12-07T15:42:36;29.17;;;15.25;;
68225;SDS011;55045;49.410;11.030;2022-12-07T15:45:42;22.58;;;13.13;;
68225;SDS011;55045;49.410;11.030;2022-12-07T15:48:45;24.42;;;13.35;;
68225;SDS011;55045;49.410;11.030;2022-12-07T15:51:50;24.65;;;14.30;;
68225;SDS011;55045;49.410;11.030;2022-12-07T15:54:54;23.23;;;12.05;;
68225;SDS011;55045;49.410;11.030;2022-12-07T15:57:59;24.52;;;11.40;;
68225;SDS011;55045;49.410;11.030;2022-12-07T16:01:09;28.75;;;15.98;;
68225;SDS011;55045;49.410;11.030;2022-12-07T16:04:15;23.77;;;14.13;;
68225;SDS011;55045;49.410;11.030;2022-12-07T16:07:21;24.58;;;14.40;;
68225;SDS011;55045;49.410;11.030;2022-12-07T16:10:27;25.75;;;15.23;;
68225;SDS011;55045;49.410;11.030;2022-12-07T16:13:35;29.58;;;14.82;;
68225;SDS011;55045;49.410;11.030;2022-12-07T16:16:39;24.63;;;14.10;;
68225;SDS011;55045;49.410;11.030;2022-12-07T16:23:14;23.30;;;13.82;;
68225;SDS011;55045;49.410;11.030;2022-12-07T16:26:19;30.60;;;15.40;;
68225;SDS011;55045;49.410;11.030;2022-12-07T16:29:28;34.78;;;15.57;;
68225;SDS011;55045;49.410;11.030;2022-12-07T16:34:48;33.42;;;16.17;;
68225;SDS011;55045;49.410;11.030;2022-12-07T16:37:57;29.67;;;15.38;;
68225;SDS011;55045;49.410;11.030;2022-12-07T16:41:03;35.63;;;19.08;;
68225;SDS011;55045;49.410;11.030;2022-12-07T16:44:14;37.78;;;19.42;;
68225;SDS011;55045;49.410;11.030;2022-12-07T16:47:18;33.00;;;18.45;;
68225;SDS011;55045;49.410;11.030;2022-12-07T16:50:27;34.53;;;19.35;;
68225;SDS011;55045;49.410;11.030;2022-12-07T16:53:34;34.70;;;18.20;;
68225;SDS011;55045;49.410;11.030;2022-12-07T16:56:44;34.78;;;18.50;;
68225;SDS011;55045;49.410;11.030;2022-12-07T16:59:49;32.20;;;16.85;;
68225;SDS011;55045;49.410;11.030;2022-12-07T17:06:30;40.42;;;21.38;;
68225;SDS011;55045;49.410;11.030;2022-12-07T17:09:44;35.80;;;19.52;;
68225;SDS011;55045;49.410;11.030;2022-12-07T17:12:54;33.45;;;17.92;;
68225;SDS011;55045;49.410;11.030;2022-12-07T17:16:00;40.97;;;24.40;;
68225;SDS011;55045;49.410;11.030;2022-12-07T17:19:11;44.38;;;22.02;;
68225;SDS011;55045;49.410;11.030;2022-12-07T17:22:17;42.38;;;19.95;;
68225;SDS011;55045;49.410;11.030;2022-12-07T17:25:22;32.15;;;18.40;;
68225;SDS011;55045;49.410;11.030;2022-12-07T17:28:33;42.67;;;19.83;;
68225;SDS011;55045;49.410;11.030;2022-12-07T17:31:44;47.90;;;22.50;;
68225;SDS011;55045;49.410;11.030;2022-12-07T17:34:55;39.65;;;21.05;;
68225;SDS011;55045;49.410;11.030;2022-12-07T17:38:03;36.22;;;19.67;;
68225;SDS011;55045;49.410;11.030;2022-12-07T17:41:11;45.05;;;21.85;;
68225;SDS011;55045;49.410;11.030;2022-12-07T17:44:48;44.53;;;21.05;;
68225;SDS011;55045;49.410;11.030;2022-12-07T17:47:55;52.63;;;23.00;;
68225;SDS011;55045;49.410;11.030;2022-12-07T17:51:13;43.95;;;22.67;;
68225;SDS011;55045;49.410;11.030;2022-12-07T17:54:38;43.17;;;21.55;;
68225;SDS011;55045;49.410;11.030;2022-12-07T17:57:47;49.45;;;23.48;;
68225;SDS011;55045;49.410;11.030;2022-12-07T18:00:58;50.92;;;24.33;;
68225;SDS011;55045;49.410;11.030;2022-12-07T18:04:09;52.60;;;25.30;;
68225;SDS011;55045;49.410;11.030;2022-12-07T18:07:15;72.88;;;30.88;;
68225;SDS011;55045;49.410;11.030;2022-12-07T18:10:22;70.97;;;32.58;;
68225;SDS011;55045;49.410;11.030;2022-12-07T18:13:33;65.65;;;34.17;;
68225;SDS011;55045;49.410;11.030;2022-12-07T18:16:47;44.05;;;23.65;;
68225;SDS011;55045;49.410;11.030;2022-12-07T18:19:55;46.15;;;23.33;;
68225;SDS011;55045;49.410;11.030;2022-12-07T18:23:01;44.30;;;25.02;;
68225;SDS011;55045;49.410;11.030;2022-12-07T18:26:09;44.63;;;22.45;;
68225;SDS011;55045;49.410;11.030;2022-12-07T18:29:17;46.40;;;23.85;;
68225;SDS011;55045;49.410;11.030;2022-12-07T18:32:32;37.38;;;21.52;;
68225;SDS011;55045;49.410;11.030;2022-12-07T18:35:41;43.00;;;21.73;;
68225;SDS011;55045;49.410;11.030;2022-12-07T18:38:44;37.03;;;22.13;;
68225;SDS011;55045;49.410;11.030;2022-12-07T18:41:49;40.72;;;22.30;;
68225;SDS011;55045;49.410;11.030;2022-12-07T18:44:55;32.85;;;16.70;;